Time;durP1;ratioP1;P1;durP2;ratioP2;P2;SDS_P1;SDS_P2;PMS_P1;PMS_P2;Temp;Humidity;BMP_temperature;BMP_pressure;BME280_temperature;BME280_humidity;BME280_pressure;Samples;Min_cycle;Max_cycle;Signal;HPM_P1;HPM_P2
2021/06/22 00:00:06;;;;;;;3.25;2.00;;;;;;;17.54;100.00;95409.09;4374102;32;20227;-77
2021/06/22 00:02:31;;;;;;;2.80;1.70;;;;;;;17.61;100.00;95411.00;4374133;32;20235;-77
2021/06/22 00:04:57;;;;;;;5.30;2.40;;;;;;;17.56;100.00;95410.59;4374041;32;20253;-76
2021/06/22 00:07:22;;;;;;;3.47;1.90;;;;;;;17.55;100.00;95402.91;4372211;32;20249;-76
2021/06/22 00:09:48;;;;;;;2.07;1.80;;;;;;;17.29;100.00;95395.75;4372724;32;20270;-76
2021/06/22 00:12:15;;;;;;;3.92;2.45;;;;;;;17.12;100.00;95397.34;4373828;32;20318;-76
2021/06/22 00:14:40;;;;;;;17.55;3.00;;;;;;;16.88;100.00;95390.03;4373910;32;20230;-76
2021/06/22 00:17:05;;;;;;;25.50;3.17;;;;;;;16.55;100.00;95380.91;4373242;32;20571;-76
2021/06/22 00:19:31;;;;;;;44.40;3.80;;;;;;;16.47;100.00;95388.63;4372611;32;20231;-77
2021/06/22 00:21:56;;;;;;;32.93;3.30;;;;;;;16.50;100.00;95383.13;4349669;32;747340;-77
2021/06/22 00:24:22;;;;;;;45.22;3.67;;;;;;;16.42;100.00;95388.22;4373473;32;20258;-76
2021/06/22 00:26:47;;;;;;;3.33;2.00;;;;;;;16.33;100.00;95389.91;4373289;32;20266;-76
2021/06/22 00:29:16;;;;;;;2.40;2.00;;;;;;;16.56;100.00;95386.94;4373747;32;20595;-76
2021/06/22 00:31:41;;;;;;;5.37;2.60;;;;;;;16.64;100.00;95382.66;4373072;32;20623;-76
2021/06/22 00:34:07;;;;;;;3.73;2.30;;;;;;;16.77;100.00;95373.72;4371724;32;20222;-76
2021/06/22 00:36:32;;;;;;;2.83;1.90;;;;;;;16.97;100.00;95380.47;4373097;32;20258;-77
2021/06/22 00:38:57;;;;;;;2.77;2.47;;;;;;;17.13;100.00;95382.47;4373512;32;20262;-76
2021/06/22 00:41:23;;;;;;;4.60;2.20;;;;;;;17.24;100.00;95378.81;4373401;32;20218;-76
2021/06/22 00:43:48;;;;;;;3.07;2.27;;;;;;;17.23;100.00;95379.81;4373633;32;20250;-77
2021/06/22 00:46:15;;;;;;;4.37;2.43;;;;;;;17.45;100.00;95384.63;4372998;32;20238;-76
2021/06/22 00:48:41;;;;;;;2.75;2.25;;;;;;;17.54;100.00;95386.38;4373132;32;20231;-77
2021/06/22 00:51:06;;;;;;;4.20;2.70;;;;;;;17.39;100.00;95379.97;4373230;32;20568;-77
2021/06/22 00:53:31;;;;;;;5.03;2.53;;;;;;;17.05;100.00;95374.53;4373292;32;20223;-76
2021/06/22 00:55:57;;;;;;;7.23;3.00;;;;;;;16.67;100.00;95379.75;4372865;32;20258;-77
2021/06/22 00:58:23;;;;;;;6.00;2.73;;;;;;;16.58;100.00;95372.78;4371995;32;20238;-76
2021/06/22 01:00:49;;;;;;;3.67;2.50;;;;;;;16.63;100.00;95364.50;4373130;32;20529;-76
2021/06/22 01:03:16;;;;;;;6.30;2.45;;;;;;;16.58;100.00;95357.09;4371517;32;20254;-77
2021/06/22 01:05:41;;;;;;;3.60;2.40;;;;;;;16.82;100.00;95346.13;4372677;32;20235;-76
2021/06/22 01:08:07;;;;;;;2.97;2.20;;;;;;;16.92;100.00;95353.94;4373387;32;20292;-77
2021/06/22 01:10:33;;;;;;;2.40;2.00;;;;;;;17.33;100.00;95362.25;4372775;32;20222;-76
2021/06/22 01:12:58;;;;;;;3.40;2.10;;;;;;;17.23;100.00;95366.72;4371788;32;20284;-76
2021/06/22 01:15:25;;;;;;;2.17;1.67;;;;;;;17.15;100.00;95373.50;4372957;32;20254;-76
2021/06/22 01:17:55;;;;;;;3.80;2.13;;;;;;;17.22;100.00;95372.94;4373285;32;20216;-77
2021/06/22 01:20:24;;;;;;;4.12;2.08;;;;;;;17.17;100.00;95376.00;4372564;32;20256;-76
2021/06/22 01:22:51;;;;;;;3.47;2.00;;;;;;;16.99;100.00;95385.59;4372727;32;20281;-77
2021/06/22 01:25:16;;;;;;;3.33;2.00;;;;;;;17.00;100.00;95385.44;4371405;32;20598;-76
2021/06/22 01:27:42;;;;;;;3.62;2.10;;;;;;;17.13;100.00;95380.69;4372333;32;20227;-77
2021/06/22 01:30:09;;;;;;;4.47;2.58;;;;;;;17.21;100.00;95381.75;4371457;32;20286;-77
2021/06/22 01:32:35;;;;;;;5.18;2.08;;;;;;;17.27;100.00;95381.97;4372485;32;20531;-77
2021/06/22 01:35:00;;;;;;;4.13;2.03;;;;;;;17.35;100.00;95376.84;4373098;32;20250;-76
2021/06/22 01:37:26;;;;;;;2.05;1.80;;;;;;;17.32;100.00;95384.19;4372401;32;20273;-77
2021/06/22 01:39:53;;;;;;;2.90;1.80;;;;;;;17.36;100.00;95388.97;4373006;32;20689;-76
2021/06/22 01:42:18;;;;;;;3.50;1.90;;;;;;;17.44;100.00;95398.69;4372431;32;20297;-77
2021/06/22 01:44:46;;;;;;;4.00;2.13;;;;;;;17.30;100.00;95389.53;4372791;32;20224;-76
2021/06/22 01:47:12;;;;;;;5.75;2.40;;;;;;;17.32;100.00;95399.88;4372290;32;20238;-76
2021/06/22 01:49:37;;;;;;;3.67;1.95;;;;;;;17.40;100.00;95395.56;4372668;32;20729;-76
2021/06/22 01:52:03;;;;;;;4.63;2.20;;;;;;;17.42;100.00;95390.16;4372441;32;20239;-76
2021/06/22 01:54:29;;;;;;;3.37;1.90;;;;;;;17.45;100.00;95383.81;4372693;32;20247;-76
2021/06/22 01:56:58;;;;;;;3.37;2.20;;;;;;;17.49;100.00;95393.81;4371040;32;20566;-76
2021/06/22 01:59:23;;;;;;;3.90;2.20;;;;;;;17.52;100.00;95388.31;4372465;32;20231;-76
2021/06/22 02:01:48;;;;;;;4.90;2.45;;;;;;;17.59;100.00;95394.59;4372236;32;20257;-76
2021/06/22 02:04:16;;;;;;;4.37;2.50;;;;;;;17.43;100.00;95394.44;4372838;32;20230;-77
2021/06/22 02:06:42;;;;;;;7.18;2.53;;;;;;;17.43;100.00;95389.22;4370927;32;20317;-76
2021/06/22 02:09:07;;;;;;;4.47;2.22;;;;;;;17.39;100.00;95382.59;4371256;32;20235;-76
2021/06/22 02:11:33;;;;;;;2.67;2.10;;;;;;;17.22;100.00;95375.56;4372621;32;20728;-77
2021/06/22 02:14:00;;;;;;;6.22;2.58;;;;;;;17.26;100.00;95382.13;4372169;32;20262;-76
2021/06/22 02:16:26;;;;;;;4.20;2.37;;;;;;;17.24;100.00;95378.81;4371690;32;20281;-76
2021/06/22 02:18:51;;;;;;;5.13;2.67;;;;;;;17.24;100.00;95387.50;4372717;32;20219;-77
2021/06/22 02:21:16;;;;;;;5.00;2.40;;;;;;;17.09;100.00;95379.34;4372313;32;20274;-76
2021/06/22 02:23:42;;;;;;;2.90;2.33;;;;;;;17.12;100.00;95370.34;4371232;32;20247;-76
2021/06/22 02:26:07;;;;;;;2.93;2.50;;;;;;;17.20;100.00;95375.69;4370373;32;20301;-76
2021/06/22 02:28:34;;;;;;;2.80;2.20;;;;;;;17.24;100.00;95366.56;4372211;32;20329;-76
2021/06/22 02:31:01;;;;;;;2.42;1.70;;;;;;;17.29;100.00;95366.97;4372700;32;20701;-77
2021/06/22 02:33:27;;;;;;;2.90;2.22;;;;;;;17.36;100.00;95364.59;4370670;32;20223;-77
2021/06/22 02:35:52;;;;;;;4.40;2.60;;;;;;;17.31;100.00;95359.78;4371606;32;20261;-76
2021/06/22 02:38:19;;;;;;;1.85;1.75;;;;;;;17.32;100.00;95360.63;4372434;32;20701;-77
2021/06/22 02:40:44;;;;;;;3.45;2.03;;;;;;;17.32;100.00;95361.44;4372094;32;20590;-76
2021/06/22 02:43:10;;;;;;;4.47;2.33;;;;;;;17.51;100.00;95364.91;4372256;32;20227;-77
2021/06/22 02:45:36;;;;;;;3.33;2.30;;;;;;;17.81;100.00;95366.34;4371794;32;20228;-76
2021/06/22 02:48:03;;;;;;;5.37;2.67;;;;;;;17.54;100.00;95365.44;4370841;32;20363;-76
2021/06/22 02:50:29;;;;;;;7.12;2.50;;;;;;;17.69;100.00;95359.66;4372251;32;20224;-76
2021/06/22 02:52:54;;;;;;;4.15;2.53;;;;;;;17.61;100.00;95363.00;4372061;32;20246;-76
2021/06/22 02:55:20;;;;;;;5.00;2.87;;;;;;;17.47;100.00;95364.38;4371759;32;20631;-77
2021/06/22 02:57:47;;;;;;;5.62;3.00;;;;;;;17.46;100.00;95365.31;4373505;32;20277;-76
2021/06/22 03:00:13;;;;;;;5.10;3.10;;;;;;;17.30;100.00;95362.53;4375010;32;20261;-76
2021/06/22 03:02:39;;;;;;;4.70;2.80;;;;;;;17.18;100.00;95362.75;4370617;32;20225;-76
2021/06/22 03:05:07;;;;;;;4.43;2.97;;;;;;;17.30;100.00;95363.38;4369024;32;20220;-78
2021/06/22 03:07:32;;;;;;;6.32;2.90;;;;;;;17.26;100.00;95359.41;4376429;32;20239;-78
2021/06/22 03:09:57;;;;;;;3.70;2.77;;;;;;;17.38;100.00;95354.78;4375718;32;20262;-78
2021/06/22 03:12:23;;;;;;;6.97;2.90;;;;;;;17.36;100.00;95354.13;4365975;32;20221;-79
2021/06/22 03:14:48;;;;;;;6.20;3.17;;;;;;;17.27;100.00;95354.97;4374038;32;20262;-78
2021/06/22 03:17:14;;;;;;;4.33;3.07;;;;;;;17.30;100.00;95336.37;4376429;32;20254;-79
2021/06/22 03:19:39;;;;;;;3.20;2.60;;;;;;;17.05;100.00;95333.47;4375560;32;20330;-78
2021/06/22 03:22:06;;;;;;;5.60;3.30;;;;;;;16.98;100.00;95339.44;4389747;27;20233;-76
2021/06/22 03:24:31;;;;;;;4.05;3.00;;;;;;;16.90;100.00;95343.63;4363674;32;20251;-76
2021/06/22 03:26:57;;;;;;;4.57;2.57;;;;;;;16.83;100.00;95345.16;4367971;32;20269;-76
2021/06/22 03:29:23;;;;;;;5.03;2.37;;;;;;;16.72;100.00;95344.50;4373254;32;20285;-76
2021/06/22 03:31:49;;;;;;;3.92;2.37;;;;;;;16.55;100.00;95339.06;4372352;32;20253;-76
2021/06/22 03:34:14;;;;;;;3.80;2.35;;;;;;;16.68;100.00;95338.72;4358045;33;20226;-76
2021/06/22 03:36:40;;;;;;;2.83;1.93;;;;;;;16.79;100.00;95342.97;4359365;32;20225;-76
2021/06/22 03:39:09;;;;;;;2.87;2.17;;;;;;;16.85;100.00;95337.19;4359444;33;20233;-76
2021/06/22 03:41:35;;;;;;;2.95;2.10;;;;;;;16.89;100.00;95330.69;4359456;32;20280;-76
2021/06/22 03:44:01;;;;;;;4.00;2.15;;;;;;;16.91;100.00;95331.38;4359364;32;20646;-76
2021/06/22 03:46:27;;;;;;;3.15;2.28;;;;;;;16.95;100.00;95322.28;4359021;33;20288;-76
2021/06/22 03:48:52;;;;;;;3.67;2.30;;;;;;;17.00;100.00;95327.06;4359666;32;20631;-76
2021/06/22 03:51:17;;;;;;;5.47;2.50;;;;;;;17.06;100.00;95334.34;4365177;32;20249;-76
2021/06/22 03:53:43;;;;;;;3.00;2.70;;;;;;;17.19;100.00;95332.16;4371016;32;20239;-76
2021/06/22 03:56:10;;;;;;;2.80;2.30;;;;;;;17.18;100.00;95330.53;4373803;32;20216;-76
2021/06/22 03:58:36;;;;;;;3.60;2.45;;;;;;;17.11;100.00;95314.59;4372902;32;20487;-76
2021/06/22 04:01:03;;;;;;;3.33;2.27;;;;;;;17.01;100.00;95316.44;4373078;32;20221;-76
2021/06/22 04:03:28;;;;;;;2.97;2.50;;;;;;;17.10;100.00;95307.72;4365461;32;20298;-76
2021/06/22 04:05:54;;;;;;;2.93;2.30;;;;;;;17.35;100.00;95305.34;4363585;32;20242;-76
2021/06/22 04:08:19;;;;;;;4.07;2.47;;;;;;;17.26;100.00;95298.37;4365081;32;20283;-76
2021/06/22 04:10:45;;;;;;;4.87;3.07;;;;;;;17.50;100.00;95297.78;4371179;32;20246;-76
2021/06/22 04:13:12;;;;;;;3.90;2.80;;;;;;;17.42;100.00;95312.44;4374232;32;20741;-76
2021/06/22 04:15:37;;;;;;;3.58;3.00;;;;;;;17.32;100.00;95318.75;4366707;32;20229;-76
2021/06/22 04:18:05;;;;;;;3.50;2.67;;;;;;;17.24;100.00;95316.03;4363813;32;20287;-76
2021/06/22 04:20:31;;;;;;;3.87;2.40;;;;;;;17.13;100.00;95312.66;4357580;32;20231;-76
2021/06/22 04:22:58;;;;;;;4.37;2.67;;;;;;;17.01;100.00;95310.38;4366311;32;20233;-76
2021/06/22 04:25:23;;;;;;;5.15;2.45;;;;;;;17.03;100.00;95306.66;4374223;32;20295;-77
2021/06/22 04:27:49;;;;;;;3.53;2.50;;;;;;;17.09;100.00;95315.69;4364733;32;20794;-76
2021/06/22 04:30:16;;;;;;;4.05;2.00;;;;;;;17.10;100.00;95325.22;4356972;32;20259;-75
2021/06/22 04:32:42;;;;;;;2.95;2.40;;;;;;;16.91;100.00;95321.75;4358551;32;20279;-77
2021/06/22 04:35:09;;;;;;;15.30;2.80;;;;;;;16.52;100.00;95322.84;4363336;32;20258;-77
2021/06/22 04:37:34;;;;;;;5.25;2.40;;;;;;;16.06;100.00;95322.72;4368897;32;20223;-77
2021/06/22 04:40:00;;;;;;;4.80;2.10;;;;;;;16.00;100.00;95331.09;4372587;32;20302;-77
2021/06/22 04:42:25;;;;;;;6.60;2.40;;;;;;;16.03;100.00;95324.78;4369631;32;20243;-77
2021/06/22 04:44:51;;;;;;;3.45;2.08;;;;;;;16.15;100.00;95337.53;4363618;32;20320;-76
2021/06/22 04:47:18;;;;;;;4.53;2.60;;;;;;;16.33;100.00;95349.88;4373138;32;20283;-75
2021/06/22 04:49:43;;;;;;;4.72;2.78;;;;;;;16.38;100.00;95347.66;4373844;32;20313;-75
2021/06/22 04:52:12;;;;;;;5.12;3.22;;;;;;;16.41;100.00;95347.38;4373180;32;20231;-75
2021/06/22 04:54:37;;;;;;;6.62;3.78;;;;;;;16.28;100.00;95346.84;4369213;32;20323;-75
2021/06/22 04:57:04;;;;;;;7.90;2.90;;;;;;;16.30;100.00;95344.94;4368408;32;20672;-75
2021/06/22 04:59:31;;;;;;;4.20;2.90;;;;;;;16.35;100.00;95351.37;4362514;32;20706;-75
2021/06/22 05:01:59;;;;;;;4.35;3.03;;;;;;;16.54;100.00;95358.34;4357963;33;20256;-75
2021/06/22 05:04:26;;;;;;;3.30;2.40;;;;;;;16.53;100.00;95361.09;4355621;33;20251;-75
2021/06/22 05:06:51;;;;;;;5.00;2.87;;;;;;;16.68;100.00;95368.31;4362612;32;20228;-75
2021/06/22 05:09:17;;;;;;;3.58;2.33;;;;;;;16.77;100.00;95364.06;4368976;32;20539;-75
2021/06/22 05:11:42;;;;;;;3.53;2.37;;;;;;;16.76;100.00;95366.81;4366917;32;20226;-75
2021/06/22 05:14:08;;;;;;;4.23;2.50;;;;;;;16.77;100.00;95365.88;4372912;32;20593;-75
2021/06/22 05:16:33;;;;;;;4.00;2.37;;;;;;;16.83;100.00;95373.09;4369209;32;20546;-75
2021/06/22 05:18:58;;;;;;;2.87;2.20;;;;;;;16.90;100.00;95368.94;4365837;32;20269;-75
2021/06/22 05:21:25;;;;;;;4.47;2.40;;;;;;;17.04;100.00;95365.03;4368012;32;20229;-76
2021/06/22 05:23:50;;;;;;;3.87;2.20;;;;;;;17.07;100.00;95370.81;4364170;32;20556;-76
2021/06/22 05:26:16;;;;;;;4.40;2.15;;;;;;;17.16;100.00;95374.31;4370097;32;20262;-75
2021/06/22 05:28:41;;;;;;;4.23;2.30;;;;;;;17.18;100.00;95383.69;4366483;32;20229;-75
2021/06/22 05:31:06;;;;;;;2.30;2.10;;;;;;;17.17;100.00;95382.06;4369392;33;20237;-75
2021/06/22 05:33:32;;;;;;;3.12;2.08;;;;;;;17.24;100.00;95381.44;4369955;32;20664;-73
2021/06/22 05:35:57;;;;;;;3.73;2.27;;;;;;;17.24;100.00;95378.81;4369819;32;20219;-78
2021/06/22 05:38:24;;;;;;;2.77;2.13;;;;;;;17.31;100.00;95385.13;4373691;32;20281;-77
2021/06/22 05:40:49;;;;;;;2.78;1.80;;;;;;;17.37;100.00;95384.56;4372859;32;20245;-76
2021/06/22 05:43:15;;;;;;;4.18;2.42;;;;;;;17.42;100.00;95382.31;4373739;32;20214;-78
2021/06/22 05:45:41;;;;;;;3.90;2.63;;;;;;;17.35;100.00;95386.47;4373474;32;20261;-77
2021/06/22 05:48:06;;;;;;;3.23;2.23;;;;;;;17.11;100.00;95381.81;4373482;32;20633;-77
2021/06/22 05:50:32;;;;;;;4.13;2.43;;;;;;;16.98;100.00;95389.97;4368960;32;20227;-76
2021/06/22 05:52:57;;;;;;;8.10;2.40;;;;;;;17.12;100.00;95386.06;4366516;32;20611;-76
2021/06/22 05:55:24;;;;;;;3.60;2.28;;;;;;;17.20;100.00;95398.41;4372479;32;20255;-77
2021/06/22 05:57:51;;;;;;;4.65;2.60;;;;;;;17.06;100.00;95403.19;4366461;32;20232;-77
2021/06/22 06:00:20;;;;;;;3.03;2.25;;;;;;;17.13;100.00;95400.78;4358211;33;20309;-76
2021/06/22 06:02:45;;;;;;;4.22;2.50;;;;;;;17.01;100.00;95399.34;4356588;33;20257;-78
2021/06/22 06:05:13;;;;;;;4.07;2.30;;;;;;;16.99;100.00;95402.09;4361830;32;20231;-78
2021/06/22 06:07:38;;;;;;;3.08;2.12;;;;;;;16.92;100.00;95411.50;4359890;32;20567;-76
2021/06/22 06:10:05;;;;;;;4.87;2.20;;;;;;;16.96;100.00;95407.63;4358954;32;20222;-77
2021/06/22 06:12:32;;;;;;;2.53;2.10;;;;;;;17.03;100.00;95407.88;4352136;32;20214;-75
2021/06/22 06:14:57;;;;;;;4.23;2.20;;;;;;;16.94;100.00;95409.53;4351732;32;20375;-77
2021/06/22 06:17:23;;;;;;;4.03;2.60;;;;;;;16.86;100.00;95412.06;4355826;32;20612;-76
2021/06/22 06:19:50;;;;;;;2.62;2.22;;;;;;;16.81;100.00;95411.69;4356642;33;20256;-76
2021/06/22 06:22:16;;;;;;;4.18;2.50;;;;;;;16.99;100.00;95409.97;4359046;32;20227;-77
2021/06/22 06:24:41;;;;;;;2.87;2.13;;;;;;;17.37;100.00;95413.34;4361061;32;20283;-78
2021/06/22 06:27:11;;;;;;;6.20;2.87;;;;;;;17.20;100.00;95408.88;4367123;32;20223;-78
2021/06/22 06:32:22;;;;;;;4.87;2.53;;;;;;;17.23;100.00;95421.69;4367030;32;20257;-78
2021/06/22 06:34:48;;;;;;;3.17;2.43;;;;;;;17.36;100.00;95425.63;4377139;32;20643;-76
2021/06/22 06:37:13;;;;;;;3.25;2.35;;;;;;;17.42;100.00;95432.84;4375304;32;20231;-76
2021/06/22 06:39:39;;;;;;;5.20;2.30;;;;;;;17.55;100.00;95439.56;4373952;32;20227;-77
2021/06/22 06:42:05;;;;;;;3.40;2.63;;;;;;;17.63;100.00;95437.03;4375639;32;20757;-75
2021/06/22 06:44:30;;;;;;;3.65;2.17;;;;;;;17.58;100.00;95429.63;4376751;32;20577;-77
2021/06/22 06:46:57;;;;;;;5.67;2.30;;;;;;;17.45;100.00;95417.84;4375918;32;20266;-77
2021/06/22 06:49:22;;;;;;;6.37;2.75;;;;;;;17.55;100.00;95419.44;4376147;32;20261;-77
2021/06/22 06:51:48;;;;;;;4.27;2.23;;;;;;;17.96;100.00;95417.25;4373657;32;20231;-76
2021/06/22 06:54:13;;;;;;;4.60;2.42;;;;;;;18.07;100.00;95421.44;4375893;32;20223;-76
2021/06/22 06:56:39;;;;;;;3.50;2.37;;;;;;;17.70;100.00;95421.56;4374105;32;20223;-76
2021/06/22 06:59:04;;;;;;;3.90;2.57;;;;;;;17.71;100.00;95434.47;4358919;32;20315;-77
2021/06/22 07:01:30;;;;;;;2.92;2.25;;;;;;;17.73;100.00;95442.22;4360086;33;20221;-77
2021/06/22 07:03:57;;;;;;;3.37;2.30;;;;;;;17.62;100.00;95454.53;4360146;32;20621;-76
2021/06/22 07:06:22;;;;;;;4.32;2.35;;;;;;;17.92;100.00;95463.06;4359565;32;20248;-76
2021/06/22 07:08:48;;;;;;;2.60;2.13;;;;;;;18.17;100.00;95468.50;4360416;32;20642;-76
2021/06/22 07:11:14;;;;;;;3.93;2.20;;;;;;;18.27;100.00;95474.50;4360180;32;20225;-76
2021/06/22 07:13:40;;;;;;;6.00;2.35;;;;;;;18.49;100.00;95475.84;4359643;32;20229;-76
2021/06/22 07:16:05;;;;;;;3.08;2.03;;;;;;;18.77;98.36;95482.66;4359524;33;20256;-77
2021/06/22 07:18:31;;;;;;;3.67;2.20;;;;;;;18.48;99.56;95482.06;4358597;33;20266;-76
2021/06/22 07:20:58;;;;;;;3.00;1.73;;;;;;;18.53;99.14;95478.00;4359541;32;20264;-77
2021/06/22 07:23:24;;;;;;;3.40;2.10;;;;;;;18.61;98.36;95483.31;4359551;32;20652;-76
2021/06/22 07:25:49;;;;;;;2.08;1.73;;;;;;;18.91;98.32;95477.78;4359809;32;20263;-77
2021/06/22 07:28:15;;;;;;;3.20;1.93;;;;;;;18.96;95.89;95484.25;4359520;32;20259;-77
2021/06/22 07:30:40;;;;;;;3.60;2.13;;;;;;;18.92;98.32;95480.28;4359471;33;20686;-77
2021/06/22 07:33:06;;;;;;;2.60;1.77;;;;;;;19.24;98.52;95481.44;4359660;32;20646;-77
2021/06/22 07:35:33;;;;;;;5.65;1.80;;;;;;;19.50;93.17;95479.56;4359179;32;20245;-77
2021/06/22 07:38:00;;;;;;;2.05;1.50;;;;;;;19.49;94.65;95485.81;4358066;33;20591;-76
2021/06/22 07:40:26;;;;;;;3.47;2.05;;;;;;;19.32;91.72;95484.13;4359546;32;20225;-77
2021/06/22 07:42:53;;;;;;;4.05;2.15;;;;;;;19.32;93.29;95486.75;4358736;32;20588;-77
2021/06/22 07:45:19;;;;;;;4.70;1.98;;;;;;;19.30;94.28;95491.31;4358958;33;20640;-73
2021/06/22 07:47:45;;;;;;;5.20;2.37;;;;;;;19.21;92.77;95489.63;4359669;32;20394;-76
2021/06/22 07:50:11;;;;;;;3.17;1.90;;;;;;;19.19;93.13;95479.28;4359158;33;20245;-78
2021/06/22 07:52:37;;;;;;;4.07;2.03;;;;;;;19.40;93.88;95476.28;4358992;33;20273;-76
2021/06/22 07:55:05;;;;;;;7.22;2.00;;;;;;;19.27;92.82;95476.69;4357979;33;20663;-76
2021/06/22 07:57:31;;;;;;;3.37;1.90;;;;;;;19.29;92.19;95466.87;4358657;32;20648;-76
2021/06/22 07:59:56;;;;;;;2.37;1.80;;;;;;;19.24;92.45;95476.19;4358113;33;20272;-76
2021/06/22 08:02:21;;;;;;;5.07;1.90;;;;;;;19.23;94.81;95485.03;4359252;33;20628;-76
2021/06/22 08:04:47;;;;;;;2.33;1.97;;;;;;;18.91;94.43;95481.28;4357801;33;20320;-75
2021/06/22 08:07:12;;;;;;;3.23;2.00;;;;;;;19.45;95.85;95471.34;4358943;32;20259;-76
2021/06/22 08:09:38;;;;;;;2.93;2.23;;;;;;;19.91;91.07;95477.12;4358938;32;20405;-75
2021/06/22 08:12:05;;;;;;;4.00;1.97;;;;;;;20.05;88.67;95479.09;4358702;33;20217;-75
2021/06/22 08:14:31;;;;;;;4.85;2.03;;;;;;;19.51;87.05;95477.78;4359171;33;20666;-76
2021/06/22 08:16:56;;;;;;;4.95;1.92;;;;;;;19.20;88.72;95490.59;4358623;32;20291;-76
2021/06/22 08:19:21;;;;;;;3.23;1.90;;;;;;;19.43;92.44;95481.22;4358927;32;20247;-76
2021/06/22 08:21:47;;;;;;;3.07;1.93;;;;;;;19.59;89.42;95480.44;4358728;32;20224;-76
2021/06/22 08:24:12;;;;;;;4.37;2.00;;;;;;;19.59;91.61;95481.25;4359201;32;20620;-75
2021/06/22 08:26:37;;;;;;;3.37;1.90;;;;;;;19.76;90.46;95481.34;4359125;32;20233;-76
2021/06/22 08:29:04;;;;;;;2.30;2.10;;;;;;;19.51;92.37;95483.88;4358907;32;20317;-76
2021/06/22 08:31:30;;;;;;;5.22;2.17;;;;;;;19.75;89.54;95482.31;4361253;32;20263;-75
2021/06/22 08:33:56;;;;;;;6.97;2.33;;;;;;;19.81;88.43;95479.06;4366419;32;20228;-75
2021/06/22 08:36:21;;;;;;;3.20;2.30;;;;;;;19.88;89.76;95485.34;4371360;32;20249;-75
2021/06/22 08:38:47;;;;;;;5.50;2.07;;;;;;;19.96;88.54;95476.63;4373418;32;20618;-75
2021/06/22 08:41:13;;;;;;;4.30;2.00;;;;;;;19.83;88.51;95480.53;4374443;32;20235;-75
2021/06/22 08:43:40;;;;;;;3.95;2.45;;;;;;;19.95;89.88;95482.84;4373640;32;20239;-75
2021/06/22 08:46:09;;;;;;;3.67;2.50;;;;;;;19.80;90.28;95483.50;4373219;32;20227;-75
2021/06/22 08:48:34;;;;;;;5.37;2.42;;;;;;;19.67;90.39;95487.56;4373309;32;20544;-75
2021/06/22 08:51:00;;;;;;;6.20;2.30;;;;;;;19.93;88.75;95490.91;4371997;32;20308;-75
2021/06/22 08:53:27;;;;;;;3.25;2.10;;;;;;;19.69;88.72;95501.34;4371080;32;20293;-75
2021/06/22 08:55:52;;;;;;;5.28;2.12;;;;;;;19.58;90.97;95502.44;4373053;32;20601;-75
2021/06/22 08:58:18;;;;;;;2.33;1.70;;;;;;;19.64;90.76;95503.63;4363070;32;20300;-75
2021/06/22 09:00:45;;;;;;;3.55;1.90;;;;;;;19.61;92.19;95509.16;4358117;33;20291;-76
2021/06/22 09:03:14;;;;;;;8.65;2.03;;;;;;;19.36;92.65;95508.25;4358727;32;20254;-75
2021/06/22 09:05:40;;;;;;;4.70;2.03;;;;;;;19.02;95.34;95515.12;4358030;33;20217;-75
2021/06/22 09:08:16;;;;;;;3.62;2.47;;;;;;;18.92;98.06;95514.41;4358002;32;20233;-76
2021/06/22 09:10:42;;;;;;;4.28;2.10;;;;;;;18.61;99.56;95501.69;4358201;33;20567;-75
2021/06/22 09:13:13;;;;;;;4.65;1.92;;;;;;;18.38;100.00;95496.06;4358028;32;20229;-75
2021/06/22 09:15:40;;;;;;;4.50;2.20;;;;;;;18.44;100.00;95506.94;4357691;33;20266;-75
2021/06/22 09:18:24;;;;;;;3.03;2.00;;;;;;;18.45;100.00;95501.53;4358014;33;20667;-76
2021/06/22 09:20:50;;;;;;;5.55;2.33;;;;;;;18.55;100.00;95509.34;4358045;33;20229;-75
2021/06/22 09:23:17;;;;;;;4.15;2.30;;;;;;;18.37;100.00;95506.72;4381086;27;20241;-76
2021/06/22 09:25:45;;;;;;;5.03;2.00;;;;;;;18.77;100.00;95515.94;4364806;32;20294;-75
2021/06/22 09:28:10;;;;;;;2.20;1.70;;;;;;;18.58;100.00;95519.53;4354551;32;20348;-74
2021/06/22 09:30:43;;;;;;;6.03;2.07;;;;;;;18.66;97.94;95526.63;4343346;32;20301;-75
2021/06/22 09:33:15;;;;;;;2.87;1.80;;;;;;;18.63;93.86;95533.81;4347827;33;20264;-74
2021/06/22 09:35:42;;;;;;;4.60;1.65;;;;;;;18.48;94.01;95540.56;4332230;33;20306;-74
2021/06/22 09:38:07;;;;;;;3.33;1.87;;;;;;;18.71;93.77;95545.38;4343375;32;20295;-74
2021/06/22 09:40:33;;;;;;;3.50;1.77;;;;;;;18.89;92.62;95556.69;4343252;33;20234;-73
2021/06/22 09:42:59;;;;;;;2.65;1.77;;;;;;;19.07;93.14;95544.34;4343639;32;20638;-74
2021/06/22 09:45:28;;;;;;;3.70;2.00;;;;;;;19.21;92.52;95539.53;4354407;33;20238;-73
2021/06/22 09:47:57;;;;;;;5.30;1.90;;;;;;;19.09;88.24;95546.81;4343032;33;20269;-75
2021/06/22 09:50:35;;;;;;;7.10;2.10;;;;;;;19.20;88.82;95538.66;4342991;33;20261;-75
2021/06/22 09:53:28;;;;;;;2.75;1.67;;;;;;;19.11;87.69;95523.88;4348259;33;20574;-75
2021/06/22 09:55:54;;;;;;;1.70;1.50;;;;;;;19.04;90.48;95517.59;4356131;33;20280;-74
2021/06/22 09:58:43;;;;;;;3.30;1.60;;;;;;;19.05;96.33;95516.59;4347843;32;20231;-74
2021/06/22 10:01:28;;;;;;;5.65;1.80;;;;;;;19.07;95.83;95522.53;4341480;33;20282;-74
2021/06/22 10:03:55;;;;;;;3.92;1.87;;;;;;;19.00;96.62;95537.25;4354246;33;20289;-74
2021/06/22 10:06:21;;;;;;;4.53;2.10;;;;;;;18.97;100.00;95538.38;4341940;33;20625;-73
2021/06/22 10:08:54;;;;;;;2.37;1.60;;;;;;;19.13;100.00;95548.13;4345321;33;20217;-74
2021/06/22 10:11:30;;;;;;;2.85;2.00;;;;;;;18.73;100.00;95552.13;4342762;33;20598;-74
2021/06/22 10:13:56;;;;;;;7.25;2.17;;;;;;;18.74;100.00;95547.72;4348451;32;20261;-74
2021/06/22 10:16:23;;;;;;;4.80;1.87;;;;;;;18.53;100.00;95550.59;4353223;33;20231;-74
2021/06/22 10:18:49;;;;;;;3.40;2.23;;;;;;;18.37;100.00;95553.91;4342633;33;20230;-74
2021/06/22 10:21:15;;;;;;;3.10;2.10;;;;;;;18.17;100.00;95549.75;4356212;32;20641;-74
2021/06/22 10:23:41;;;;;;;3.35;2.60;;;;;;;18.13;100.00;95560.56;4353453;32;20234;-74
2021/06/22 10:26:08;;;;;;;3.58;2.40;;;;;;;18.03;100.00;95566.84;4342613;33;20253;-74
2021/06/22 10:28:34;;;;;;;3.65;2.50;;;;;;;17.81;100.00;95557.56;4342592;33;20226;-74
2021/06/22 10:30:59;;;;;;;4.33;2.50;;;;;;;17.70;100.00;95552.50;4342671;33;20218;-74
2021/06/22 10:33:25;;;;;;;5.50;2.75;;;;;;;17.77;100.00;95561.47;4342050;33;20710;-74
2021/06/22 10:35:51;;;;;;;3.73;2.70;;;;;;;17.80;100.00;95566.41;4342534;33;20621;-74
2021/06/22 10:38:19;;;;;;;3.87;2.33;;;;;;;17.75;100.00;95556.34;4342505;33;20254;-74
2021/06/22 10:40:52;;;;;;;2.60;2.40;;;;;;;17.69;100.00;95545.59;4342552;33;20239;-74
2021/06/22 10:43:33;;;;;;;3.28;2.50;;;;;;;17.78;100.00;95558.69;4342469;33;20338;-74
2021/06/22 10:46:05;;;;;;;5.23;2.90;;;;;;;18.18;100.00;95565.34;4342313;33;20266;-74
2021/06/22 10:48:39;;;;;;;5.43;3.62;;;;;;;18.58;100.00;95567.56;4342244;33;20235;-74
2021/06/22 10:51:42;;;;;;;4.10;3.12;;;;;;;19.46;100.00;95569.34;4341197;33;20318;-74
2021/06/22 10:54:08;;;;;;;3.35;2.83;;;;;;;19.57;100.00;95563.81;4344766;33;20705;-74
2021/06/22 10:56:33;;;;;;;3.03;2.03;;;;;;;19.42;99.98;95562.75;4342571;33;20235;-75
2021/06/22 10:59:25;;;;;;;5.20;2.33;;;;;;;19.02;96.96;95565.00;4328387;33;20277;-75
2021/06/22 11:02:02;;;;;;;3.50;2.45;;;;;;;18.61;99.50;95569.03;4327445;33;20229;-76
2021/06/22 11:04:28;;;;;;;2.95;2.50;;;;;;;18.62;97.39;95576.78;4327982;33;20262;-75
2021/06/22 11:07:24;;;;;;;5.77;2.33;;;;;;;18.97;98.64;95584.78;4326168;33;20310;-75
2021/06/22 11:10:10;;;;;;;4.55;2.40;;;;;;;18.81;99.60;95593.34;4326458;33;20240;-76
2021/06/22 11:12:48;;;;;;;4.75;2.40;;;;;;;18.20;98.56;95596.66;4327516;33;20240;-76
2021/06/22 11:15:15;;;;;;;3.90;2.42;;;;;;;18.41;100.00;95591.97;4327754;33;20705;-76
2021/06/22 11:17:57;;;;;;;4.80;2.17;;;;;;;18.57;98.23;95597.34;4342017;33;20218;-76
2021/06/22 11:20:23;;;;;;;4.53;2.40;;;;;;;18.74;98.74;95594.94;4356018;33;20227;-75
2021/06/22 11:23:07;;;;;;;4.90;2.30;;;;;;;18.66;100.00;95592.22;4355849;33;20225;-75
2021/06/22 11:25:45;;;;;;;3.40;2.40;;;;;;;18.63;99.62;95596.78;4344771;33;20332;-75
2021/06/22 11:28:11;;;;;;;4.07;2.22;;;;;;;18.55;100.00;95601.94;4344643;33;20223;-75